This is the latest recevied weather packets stored in our database for station/object KC8QDR-1. If no packets are shown the sender has not sent any weather packets the latest 10 day(s).
| Time | Temp. | Humidity | Pressure | Rain* | Wind** | Luminosity | Snow |
|---|---|---|---|---|---|---|---|
| 1777872524 | 10° C | 68% | 1016.3 hPa | 0 mm | 1.79 m/s, 180° | - | - |
| 1777871925 | 10.56° C | 68% | 1016.6 hPa | 0 mm | 0.89 m/s, 201° | - | - |
| 1777871325 | 10.56° C | 68% | 1016.7 hPa | 0 mm | 0.89 m/s, 194° | - | - |
| 1777870725 | 10.56° C | 68% | 1016.8 hPa | 0 mm | 1.34 m/s, 177° | - | - |
| 1777870125 | 10.56° C | 68% | 1016.8 hPa | 0 mm | 0.45 m/s, 201° | - | - |
| 1777869525 | 10.56° C | 67% | 1016.8 hPa | 0 mm | 0.89 m/s, 211° | - | - |
| 1777868926 | 10° C | 67% | 1016.8 hPa | 0 mm | 1.79 m/s, 165° | - | - |
| 1777868325 | 10.56° C | 67% | 1016.8 hPa | 0 mm | 1.34 m/s, 206° | - | - |
| 1777867725 | 10.56° C | 66% | 1017 hPa | 0 mm | 0.45 m/s, 187° | - | - |
| 1777867125 | 10° C | 68% | 1017.2 hPa | 0 mm | 0.45 m/s, 186° | - | - |
| 1777866525 | 10° C | 70% | 1017.4 hPa | 0 mm | 0.89 m/s, 191° | - | - |
| 1777865925 | 9.44° C | 68% | 1017.5 hPa | 0 mm | 0.45 m/s, 210° | - | - |
| 1777865325 | 9.44° C | 68% | 1017.6 hPa | 0 mm | 1.34 m/s, 186° | - | - |
| 1777864796 | 9.44° C | 68% | 1017.7 hPa | 0 mm | 0.45 m/s, 179° | - | - |
| 1777864725 | 9.44° C | 68% | 1017.7 hPa | 0 mm | 0.45 m/s, 179° | - | - |
| 1777864125 | 8.89° C | 69% | 1017.7 hPa | 0 mm | 1.79 m/s, 177° | - | - |
| 1777863525 | 8.33° C | 73% | 1017.7 hPa | 0 mm | 0 m/s | - | - |
| 1777862926 | 8.33° C | 75% | 1017.4 hPa | 0 mm | 0 m/s | - | - |
| 1777862325 | 8.33° C | 76% | 1017.5 hPa | 0 mm | 0.45 m/s, 199° | - | - |
| 1777861725 | 8.33° C | 74% | 1017.4 hPa | 0 mm | 0.89 m/s, 193° | - | - |
| 1777861125 | 8.33° C | 74% | 1017.4 hPa | 0 mm | 0.45 m/s, 190° | - | - |
| 1777860524 | 8.89° C | 73% | 1017.4 hPa | 0 mm | 0 m/s | - | - |
| 1777859925 | 9.44° C | 70% | 1017.4 hPa | 0 mm | 0.45 m/s, 177° | - | - |
| 1777859325 | 10° C | 68% | 1017.3 hPa | 0 mm | 0.45 m/s, 193° | - | - |
| 1777858724 | 10.56° C | 66% | 1017.2 hPa | 0 mm | 0.89 m/s, 191° | - | - |
* Rain latest hour (hover to see other rain measurements)
** Current wind speed in m/s (hover to see current wind gust speed)